createdAt,value
2022-09-27T00:01:08.668Z,19.20
2022-09-27T00:03:36.012Z,20.70
2022-09-27T00:06:13.915Z,18.80
2022-09-27T00:08:41.472Z,22.00
2022-09-27T00:11:14.195Z,20.00
2022-09-27T00:13:41.511Z,19.90
2022-09-27T00:16:10.151Z,19.10
2022-09-27T00:18:37.426Z,17.90
2022-09-27T00:21:09.811Z,21.00
2022-09-27T00:23:37.791Z,19.10
2022-09-27T00:26:06.105Z,17.80
2022-09-27T00:28:34.519Z,17.40
2022-09-27T00:31:02.168Z,18.30
2022-09-27T00:33:29.751Z,18.30
2022-09-27T00:36:04.587Z,19.40
2022-09-27T00:38:31.702Z,18.60
2022-09-27T00:40:58.921Z,19.10
2022-09-27T00:43:26.451Z,18.70
2022-09-27T00:45:56.654Z,20.30
2022-09-27T00:48:28.326Z,19.30
2022-09-27T00:50:57.712Z,23.20
2022-09-27T00:53:32.971Z,20.50
2022-09-27T00:56:14.345Z,20.60
2022-09-27T00:58:47.298Z,21.30
2022-09-27T01:01:14.930Z,21.40
2022-09-27T01:03:45.111Z,20.40
2022-09-27T01:06:12.871Z,20.80
2022-09-27T01:08:40.149Z,21.20
2022-09-27T01:11:29.290Z,19.80
2022-09-27T01:14:27.588Z,19.70
2022-09-27T01:17:08.017Z,19.90
2022-09-27T01:20:06.432Z,16.90
2022-09-27T01:22:41.126Z,17.80
2022-09-27T01:25:19.666Z,18.70
2022-09-27T01:28:09.431Z,22.00
2022-09-27T01:30:43.444Z,22.00
2022-09-27T01:33:32.611Z,17.40
2022-09-27T01:36:22.142Z,17.70
2022-09-27T01:38:57.430Z,19.80
2022-09-27T01:42:02.871Z,18.70
2022-09-27T01:44:47.490Z,20.60
2022-09-27T01:47:20.434Z,22.30
2022-09-27T01:50:08.651Z,19.50
2022-09-27T01:52:43.685Z,17.50
2022-09-27T01:55:13.917Z,19.40
2022-09-27T01:58:00.592Z,21.20
2022-09-27T02:00:29.010Z,18.90
2022-09-27T02:03:00.279Z,19.60
2022-09-27T02:05:34.143Z,18.60
2022-09-27T02:08:20.037Z,18.20
2022-09-27T02:10:49.434Z,18.50
2022-09-27T02:13:59.720Z,16.50
2022-09-27T02:16:43.045Z,18.40
2022-09-27T02:19:14.045Z,18.60
2022-09-27T02:21:54.331Z,14.10
2022-09-27T02:24:25.555Z,20.50
2022-09-27T02:27:02.775Z,21.60
2022-09-27T02:29:35.805Z,16.60
2022-09-27T02:32:03.406Z,17.10
2022-09-27T02:34:32.206Z,15.00
2022-09-27T02:37:00.068Z,16.30
2022-09-27T02:39:27.824Z,14.70
2022-09-27T02:42:02.047Z,16.10
2022-09-27T02:44:30.032Z,17.50
2022-09-27T02:47:09.771Z,16.30
2022-09-27T02:49:56.471Z,16.00
2022-09-27T02:52:49.026Z,15.90
2022-09-27T02:55:35.540Z,16.60
2022-09-27T02:58:22.838Z,19.00
2022-09-27T03:01:28.593Z,18.60
2022-09-27T03:04:26.467Z,17.10
2022-09-27T03:06:54.528Z,19.60
2022-09-27T03:09:24.541Z,19.30
2022-09-27T03:11:51.787Z,21.30
2022-09-27T03:14:19.474Z,19.00
2022-09-27T03:17:05.107Z,18.30
2022-09-27T03:19:55.654Z,19.40
2022-09-27T03:22:43.374Z,18.20
2022-09-27T03:25:10.932Z,17.80
2022-09-27T03:27:38.174Z,19.60
2022-09-27T03:30:06.858Z,17.80
2022-09-27T03:32:34.756Z,16.20
2022-09-27T03:35:20.631Z,18.00
2022-09-27T03:37:48.379Z,17.30
2022-09-27T03:40:16.101Z,18.60
2022-09-27T03:42:48.848Z,18.80
2022-09-27T03:45:17.805Z,19.20
2022-09-27T03:47:45.144Z,20.10
2022-09-27T03:50:13.140Z,18.00
2022-09-27T03:52:41.012Z,19.80
2022-09-27T03:55:08.793Z,20.90
2022-09-27T03:57:36.118Z,20.20
2022-09-27T04:00:05.393Z,17.70
2022-09-27T04:02:38.454Z,18.20
2022-09-27T04:05:27.973Z,17.10
2022-09-27T04:08:16.835Z,16.50
2022-09-27T04:10:43.987Z,17.30
2022-09-27T04:13:12.192Z,16.20
2022-09-27T04:15:47.474Z,13.30
2022-09-27T04:18:47.834Z,14.20
2022-09-27T04:21:35.399Z,15.20
2022-09-27T04:24:03.332Z,15.50
2022-09-27T04:26:30.480Z,13.70
2022-09-27T04:29:10.817Z,15.70
2022-09-27T04:31:39.857Z,17.30
2022-09-27T04:34:48.649Z,15.30
2022-09-27T04:37:21.132Z,15.40
2022-09-27T04:39:50.116Z,19.00
2022-09-27T04:42:18.318Z,15.20
2022-09-27T04:44:46.057Z,14.30
2022-09-27T04:47:13.401Z,20.00
2022-09-27T04:49:40.996Z,15.30
2022-09-27T04:52:09.577Z,17.00
2022-09-27T04:54:37.324Z,16.60
2022-09-27T04:57:12.880Z,16.90
2022-09-27T04:59:42.458Z,15.40
2022-09-27T05:02:10.264Z,13.30
2022-09-27T05:04:49.285Z,16.50
2022-09-27T05:07:18.776Z,15.10
2022-09-27T05:09:46.117Z,15.90
2022-09-27T05:12:14.392Z,19.40
2022-09-27T05:14:45.569Z,16.90
2022-09-27T05:17:16.685Z,15.30
2022-09-27T05:19:46.819Z,14.30
2022-09-27T05:22:19.897Z,15.20
2022-09-27T05:24:47.878Z,14.90
2022-09-27T05:27:20.706Z,15.60
2022-09-27T05:29:48.304Z,15.20
2022-09-27T05:32:19.435Z,16.10
2022-09-27T05:34:51.021Z,16.80
2022-09-27T05:37:19.099Z,17.00
2022-09-27T05:39:47.260Z,15.20
2022-09-27T05:42:15.919Z,14.90
2022-09-27T05:44:47.496Z,15.80
2022-09-27T05:47:16.433Z,17.60
2022-09-27T05:49:43.983Z,15.70
2022-09-27T05:52:16.043Z,15.80
2022-09-27T05:54:45.601Z,16.30
2022-09-27T05:57:13.045Z,16.40
2022-09-27T05:59:51.729Z,16.50
2022-09-27T06:02:21.778Z,16.50
2022-09-27T06:04:52.141Z,14.60
2022-09-27T06:07:39.856Z,16.50
2022-09-27T06:10:11.417Z,15.70
2022-09-27T06:12:38.970Z,16.70
2022-09-27T06:15:16.157Z,14.80
2022-09-27T06:17:45.157Z,14.80
2022-09-27T06:20:19.223Z,15.70
2022-09-27T06:22:47.217Z,13.90
2022-09-27T06:25:14.792Z,14.30
2022-09-27T06:28:05.611Z,13.20
2022-09-27T06:30:40.516Z,15.50
2022-09-27T06:33:17.668Z,13.40
2022-09-27T06:35:51.088Z,16.20
2022-09-27T06:38:21.607Z,15.10
2022-09-27T06:41:06.751Z,13.80
2022-09-27T06:44:05.397Z,15.50
2022-09-27T06:46:53.833Z,15.50
2022-09-27T06:49:44.226Z,13.70
2022-09-27T06:52:12.403Z,12.30
2022-09-27T06:54:40.058Z,16.00
2022-09-27T06:57:07.410Z,13.60
2022-09-27T06:59:53.202Z,16.10
2022-09-27T07:02:40.621Z,14.30
2022-09-27T07:05:15.597Z,14.50
2022-09-27T07:08:17.509Z,13.70
2022-09-27T07:10:45.282Z,16.00
2022-09-27T07:13:12.431Z,18.70
2022-09-27T07:15:41.947Z,13.70
2022-09-27T07:18:12.980Z,14.50
2022-09-27T07:20:41.145Z,16.40
2022-09-27T07:23:12.718Z,14.30
2022-09-27T07:25:39.956Z,15.00
2022-09-27T07:28:11.181Z,14.80
2022-09-27T07:30:38.516Z,16.10
2022-09-27T07:33:06.840Z,14.30
2022-09-27T07:35:34.507Z,17.40
2022-09-27T07:38:01.738Z,13.00
2022-09-27T07:40:29.331Z,14.90
2022-09-27T07:42:58.187Z,14.90
2022-09-27T07:45:26.981Z,15.00
2022-09-27T07:48:17.592Z,15.40
2022-09-27T07:51:14.445Z,14.20
2022-09-27T07:53:45.014Z,14.50
2022-09-27T07:56:34.638Z,14.60
2022-09-27T07:59:02.813Z,12.90
2022-09-27T08:01:31.231Z,13.60
2022-09-27T08:03:59.062Z,15.00
2022-09-27T08:06:26.516Z,15.30
2022-09-27T08:08:55.411Z,14.20
2022-09-27T08:11:22.849Z,15.60
2022-09-27T08:13:53.076Z,15.00
2022-09-27T08:16:24.974Z,16.90
2022-09-27T08:19:12.064Z,14.10
2022-09-27T08:21:44.991Z,16.10
2022-09-27T08:24:16.080Z,16.50
2022-09-27T08:27:13.846Z,14.00
2022-09-27T08:29:50.110Z,14.20
2022-09-27T08:32:22.299Z,15.60
2022-09-27T08:34:50.588Z,14.10
2022-09-27T08:37:18.014Z,15.40
2022-09-27T08:39:47.916Z,15.00
2022-09-27T08:42:57.568Z,15.80
2022-09-27T08:45:49.544Z,16.00
2022-09-27T08:48:17.357Z,14.50
2022-09-27T08:50:46.670Z,16.00
2022-09-27T08:53:14.862Z,14.40
2022-09-27T08:55:48.263Z,15.50
2022-09-27T08:58:30.769Z,15.00
2022-09-27T09:01:14.101Z,14.20
2022-09-27T09:03:51.540Z,14.20
2022-09-27T09:06:35.124Z,15.00
2022-09-27T09:09:33.991Z,15.10
2022-09-27T09:12:46.715Z,13.00
2022-09-27T09:15:54.597Z,13.70
2022-09-27T09:19:00.589Z,14.70
2022-09-27T09:22:57.547Z,14.60
2022-09-27T09:25:36.577Z,13.40
2022-09-27T09:28:33.715Z,19.20
2022-09-27T09:31:13.702Z,17.10
2022-09-27T09:33:51.149Z,12.60
2022-09-27T09:36:29.562Z,14.50
2022-09-27T09:39:22.925Z,15.20
2022-09-27T09:42:04.537Z,13.50
2022-09-27T09:44:38.516Z,14.80
2022-09-27T09:47:14.062Z,15.40
2022-09-27T09:49:48.252Z,14.10
2022-09-27T09:52:19.706Z,12.20
2022-09-27T09:54:55.692Z,14.00
2022-09-27T09:57:29.450Z,11.60
2022-09-27T10:00:02.903Z,13.20
2022-09-27T10:02:38.158Z,13.40
2022-09-27T10:05:24.178Z,13.60
2022-09-27T10:08:23.839Z,13.10
2022-09-27T10:11:03.814Z,13.40
2022-09-27T10:13:51.976Z,12.80
2022-09-27T10:16:21.342Z,11.70
2022-09-27T10:18:52.072Z,13.80
2022-09-27T10:21:23.539Z,14.50
2022-09-27T10:24:11.325Z,12.10
2022-09-27T10:27:01.348Z,11.70
2022-09-27T10:29:37.565Z,12.90
2022-09-27T10:32:06.584Z,12.00
2022-09-27T10:34:42.431Z,12.00
2022-09-27T10:37:12.774Z,12.90
2022-09-27T10:39:48.890Z,11.20
2022-09-27T10:42:34.333Z,11.80
2022-09-27T10:45:29.566Z,13.20
2022-09-27T10:48:01.991Z,11.50
2022-09-27T10:50:58.906Z,13.00
2022-09-27T10:53:37.193Z,13.80
2022-09-27T10:56:22.459Z,12.30
2022-09-27T10:58:50.017Z,12.40
2022-09-27T11:01:18.328Z,13.90
2022-09-27T11:04:06.407Z,12.10
2022-09-27T11:06:38.568Z,12.70
2022-09-27T11:09:27.214Z,14.30
2022-09-27T11:12:14.939Z,13.30
2022-09-27T11:14:43.976Z,13.50
2022-09-27T11:17:49.902Z,13.50
2022-09-27T11:20:29.587Z,13.80
2022-09-27T11:22:59.458Z,14.20
2022-09-27T11:25:40.193Z,13.20
2022-09-27T11:28:16.795Z,13.00
2022-09-27T11:31:19.799Z,11.80
2022-09-27T11:34:28.314Z,13.80
2022-09-27T11:37:22.078Z,12.10
2022-09-27T11:39:59.575Z,12.30
2022-09-27T11:43:09.032Z,12.20
2022-09-27T11:46:20.580Z,12.20
2022-09-27T11:48:47.138Z,12.90
2022-09-27T11:51:20.870Z,14.40
2022-09-27T11:54:17.546Z,11.90
2022-09-27T11:56:57.162Z,11.30
2022-09-27T11:59:42.803Z,10.70
2022-09-27T12:02:19.254Z,13.90
2022-09-27T12:05:11.806Z,13.50
2022-09-27T12:07:48.936Z,10.50
2022-09-27T12:10:18.096Z,10.60
2022-09-27T12:12:51.943Z,10.00
2022-09-27T12:15:22.870Z,8.40
2022-09-27T12:17:54.530Z,8.20
2022-09-27T12:20:34.058Z,10.40
2022-09-27T12:23:12.897Z,9.50
2022-09-27T12:25:58.870Z,9.60
2022-09-27T12:28:51.857Z,11.00
2022-09-27T12:31:30.646Z,9.60
2022-09-27T12:34:32.195Z,10.20
2022-09-27T12:37:00.176Z,10.70
2022-09-27T12:39:49.736Z,17.70
2022-09-27T12:42:28.230Z,9.30
2022-09-27T12:45:00.205Z,11.10
2022-09-27T12:47:46.976Z,12.00
2022-09-27T12:50:38.261Z,11.10
2022-09-27T12:53:50.646Z,12.90
2022-09-27T12:56:45.065Z,11.40
2022-09-27T12:59:28.080Z,11.60
2022-09-27T13:02:13.999Z,10.80
2022-09-27T13:04:41.413Z,12.90
2022-09-27T13:07:55.869Z,12.00
2022-09-27T13:10:42.167Z,12.60
2022-09-27T13:13:24.423Z,10.80
2022-09-27T13:15:56.396Z,11.00
2022-09-27T13:18:55.438Z,10.20
2022-09-27T13:21:47.880Z,14.20
2022-09-27T13:24:43.483Z,10.40
2022-09-27T13:27:23.571Z,9.90
2022-09-27T13:29:51.816Z,10.50
2022-09-27T13:32:24.283Z,11.20
2022-09-27T13:35:21.444Z,10.80
2022-09-27T13:37:59.834Z,11.40
2022-09-27T13:40:37.728Z,10.00
2022-09-27T13:43:10.706Z,9.50
2022-09-27T13:45:56.534Z,10.10
2022-09-27T13:48:38.732Z,10.30
2022-09-27T13:51:31.245Z,11.50
2022-09-27T13:54:04.495Z,13.20
2022-09-27T13:56:38.329Z,11.30
2022-09-27T13:59:11.236Z,11.40
2022-09-27T14:01:50.547Z,12.40
2022-09-27T14:04:26.851Z,13.20
2022-09-27T14:06:57.854Z,12.90
2022-09-27T14:09:30.169Z,11.20
2022-09-27T14:12:20.625Z,10.40
2022-09-27T14:14:49.965Z,12.40
2022-09-27T14:17:17.836Z,11.60
2022-09-27T14:19:46.227Z,10.10
2022-09-27T14:22:19.199Z,8.60
2022-09-27T14:25:03.650Z,11.60
2022-09-27T14:27:38.747Z,7.10
2022-09-27T14:30:38.312Z,7.90
2022-09-27T14:33:30.058Z,8.10
2022-09-27T14:36:23.025Z,7.50
2022-09-27T14:38:53.097Z,8.80
2022-09-27T14:41:36.942Z,7.70
2022-09-27T14:44:05.109Z,8.60
2022-09-27T14:46:32.847Z,8.70
2022-09-27T14:49:21.945Z,8.30
2022-09-27T14:51:56.974Z,9.30
2022-09-27T14:54:27.248Z,9.00
2022-09-27T14:56:56.707Z,9.20
2022-09-27T14:59:35.574Z,8.40
2022-09-27T15:02:15.680Z,7.90
2022-09-27T15:04:47.127Z,6.50
2022-09-27T15:07:17.552Z,7.80
2022-09-27T15:09:46.218Z,6.20
2022-09-27T15:12:21.160Z,5.40
2022-09-27T15:14:53.875Z,4.70
2022-09-27T15:17:22.766Z,6.40
2022-09-27T15:20:06.034Z,4.90
2022-09-27T15:22:44.279Z,7.00
2022-09-27T15:25:33.356Z,9.30
2022-09-27T15:28:14.924Z,5.80
2022-09-27T15:30:46.018Z,8.30
2022-09-27T15:33:32.475Z,7.70
2022-09-27T15:36:04.591Z,7.70
2022-09-27T15:38:36.055Z,7.90
2022-09-27T15:41:06.378Z,9.60
2022-09-27T15:43:46.892Z,7.90
2022-09-27T15:46:23.378Z,8.50
2022-09-27T15:49:18.560Z,8.80
2022-09-27T15:51:54.665Z,8.20
2022-09-27T15:54:23.637Z,8.40
2022-09-27T15:56:55.413Z,7.60
2022-09-27T15:59:25.831Z,7.30
2022-09-27T16:01:59.020Z,7.30
2022-09-27T16:04:27.156Z,6.90
2022-09-27T16:06:54.912Z,6.30
2022-09-27T16:09:22.463Z,6.10
2022-09-27T16:11:50.807Z,7.20
2022-09-27T16:14:20.156Z,6.80
2022-09-27T16:16:50.985Z,5.80
2022-09-27T16:19:18.872Z,6.30
2022-09-27T16:21:48.279Z,6.90
2022-09-27T16:24:17.986Z,5.80
2022-09-27T16:26:45.280Z,7.50
2022-09-27T16:29:15.294Z,7.40
2022-09-27T16:31:43.355Z,6.80
2022-09-27T16:34:11.257Z,4.10
2022-09-27T16:36:39.829Z,6.30
2022-09-27T16:39:10.689Z,5.00
2022-09-27T16:41:37.856Z,3.60
2022-09-27T16:44:09.800Z,3.20
2022-09-27T16:46:40.887Z,4.20
2022-09-27T16:49:28.581Z,4.60
2022-09-27T16:52:01.976Z,3.70
2022-09-27T16:54:30.539Z,3.20
2022-09-27T16:56:59.487Z,6.40
2022-09-27T16:59:27.409Z,3.90
2022-09-27T17:01:58.786Z,5.80
2022-09-27T17:04:27.970Z,5.50
2022-09-27T17:06:56.028Z,4.90
2022-09-27T17:09:23.483Z,4.20
2022-09-27T17:11:51.450Z,3.80
2022-09-27T17:14:19.208Z,4.10
2022-09-27T17:16:48.952Z,5.30
2022-09-27T17:19:17.207Z,4.70
2022-09-27T17:21:45.582Z,5.10
2022-09-27T17:24:13.975Z,6.10
2022-09-27T17:26:41.631Z,8.30
2022-09-27T17:29:11.781Z,7.90
2022-09-27T17:31:40.833Z,9.30
2022-09-27T17:34:12.583Z,8.50
2022-09-27T17:36:45.339Z,7.80
2022-09-27T17:39:14.385Z,5.70
2022-09-27T17:41:41.627Z,5.30
2022-09-27T17:44:12.889Z,6.20
2022-09-27T17:46:40.823Z,6.10
2022-09-27T17:49:29.580Z,6.00
2022-09-27T17:51:58.266Z,6.00
2022-09-27T17:54:28.514Z,7.10
2022-09-27T17:56:56.953Z,6.40
2022-09-27T17:59:24.457Z,6.60
2022-09-27T18:01:52.086Z,7.60
2022-09-27T18:04:20.267Z,6.90
2022-09-27T18:06:48.331Z,9.20
2022-09-27T18:09:17.939Z,7.10
2022-09-27T18:11:47.238Z,8.50
2022-09-27T18:14:15.217Z,7.40
2022-09-27T18:16:45.414Z,7.60
2022-09-27T18:19:15.846Z,7.50
2022-09-27T18:21:44.298Z,7.30
2022-09-27T18:24:12.749Z,8.20
2022-09-27T18:26:41.708Z,7.80
2022-09-27T18:29:15.288Z,8.10
2022-09-27T18:31:48.237Z,8.60
2022-09-27T18:34:19.155Z,7.80
2022-09-27T18:36:47.946Z,7.60
2022-09-27T18:39:19.888Z,8.40
2022-09-27T18:41:51.312Z,7.90
2022-09-27T18:44:20.007Z,8.80
2022-09-27T18:46:48.432Z,8.30
2022-09-27T18:49:17.652Z,8.60
2022-09-27T18:51:48.668Z,9.10
2022-09-27T18:54:22.768Z,8.20
2022-09-27T18:56:52.988Z,9.80
2022-09-27T18:59:22.357Z,8.90
2022-09-27T19:01:50.152Z,9.50
2022-09-27T19:04:28.768Z,7.80
2022-09-27T19:06:57.959Z,8.20
2022-09-27T19:09:27.876Z,8.70
2022-09-27T19:11:59.336Z,9.30
2022-09-27T19:14:28.515Z,7.80
2022-09-27T19:16:56.936Z,9.50
2022-09-27T19:19:25.990Z,8.90
2022-09-27T19:21:54.163Z,11.20
2022-09-27T19:24:22.191Z,9.20
2022-09-27T19:26:54.087Z,9.20
2022-09-27T19:29:22.657Z,8.90
2022-09-27T19:31:50.776Z,9.80
2022-09-27T19:34:18.201Z,10.40
2022-09-27T19:36:46.376Z,14.20
2022-09-27T19:39:14.726Z,12.10
2022-09-27T19:41:42.412Z,13.60
2022-09-27T19:44:10.678Z,14.00
2022-09-27T19:46:38.211Z,14.40
2022-09-27T19:49:06.036Z,14.80
2022-09-27T19:51:34.715Z,18.50
2022-09-27T19:54:02.472Z,16.40
2022-09-27T19:56:30.550Z,22.90
2022-09-27T19:58:58.791Z,21.50
2022-09-27T20:01:27.941Z,19.30
2022-09-27T20:03:56.480Z,13.40
2022-09-27T20:06:24.297Z,11.50
2022-09-27T20:08:52.237Z,13.90
2022-09-27T20:11:24.495Z,13.60
2022-09-27T20:13:55.941Z,12.80
2022-09-27T20:16:25.110Z,12.60
2022-09-27T20:18:56.917Z,13.80
2022-09-27T20:21:28.080Z,13.30
2022-09-27T20:23:56.788Z,14.20
2022-09-27T20:26:25.759Z,14.20
2022-09-27T20:28:55.236Z,13.70
2022-09-27T20:31:27.683Z,11.80
2022-09-27T20:33:55.151Z,11.70
2022-09-27T20:36:32.135Z,10.00
2022-09-27T20:39:04.654Z,12.50
2022-09-27T20:41:34.631Z,12.40
2022-09-27T20:44:04.790Z,10.70
2022-09-27T20:46:33.264Z,10.60
2022-09-27T20:49:03.399Z,10.80
2022-09-27T20:51:35.145Z,10.80
2022-09-27T20:54:04.304Z,11.30
2022-09-27T20:56:43.703Z,10.20
2022-09-27T20:59:19.887Z,12.20
2022-09-27T21:01:49.684Z,13.50
2022-09-27T21:04:18.710Z,12.70
2022-09-27T21:06:46.779Z,11.80
2022-09-27T21:09:19.374Z,11.70
2022-09-27T21:11:48.900Z,11.80
2022-09-27T21:14:16.574Z,13.70
2022-09-27T21:16:44.397Z,13.80
2022-09-27T21:19:11.725Z,11.60
2022-09-27T21:21:38.863Z,14.50
2022-09-27T21:24:06.127Z,11.00
2022-09-27T21:26:34.727Z,12.00
2022-09-27T21:29:06.131Z,12.80
2022-09-27T21:31:33.768Z,11.90
2022-09-27T21:34:03.680Z,12.00
2022-09-27T21:36:35.226Z,10.50
2022-09-27T21:39:03.896Z,9.50
2022-09-27T21:41:31.136Z,10.60
2022-09-27T21:43:58.344Z,10.70
2022-09-27T21:46:27.839Z,9.80
2022-09-27T21:49:00.513Z,10.00
2022-09-27T21:51:46.952Z,10.80
2022-09-27T21:54:15.678Z,9.00
2022-09-27T21:56:44.329Z,9.80
2022-09-27T21:59:13.956Z,9.80
2022-09-27T22:01:43.053Z,11.50
2022-09-27T22:04:11.362Z,10.00
2022-09-27T22:06:39.811Z,11.20
2022-09-27T22:09:11.492Z,9.20
2022-09-27T22:11:40.677Z,10.20
2022-09-27T22:14:08.436Z,10.40
2022-09-27T22:16:36.445Z,10.20
2022-09-27T22:19:04.925Z,10.70
2022-09-27T22:21:37.829Z,12.00
2022-09-27T22:24:08.422Z,9.50
2022-09-27T22:26:38.067Z,10.90
2022-09-27T22:29:05.934Z,10.50
2022-09-27T22:31:33.610Z,10.20
2022-09-27T22:34:03.813Z,9.20
2022-09-27T22:36:32.822Z,9.10
2022-09-27T22:39:00.417Z,10.20
2022-09-27T22:41:31.036Z,11.20
2022-09-27T22:43:58.698Z,11.60
2022-09-27T22:46:26.671Z,10.80
2022-09-27T22:48:54.113Z,10.50
2022-09-27T22:51:21.498Z,10.10
2022-09-27T22:53:48.831Z,10.40
2022-09-27T22:56:18.893Z,10.90
2022-09-27T22:58:47.943Z,11.80
2022-09-27T23:01:20.741Z,9.80
2022-09-27T23:03:50.078Z,9.10
2022-09-27T23:06:19.142Z,9.40
2022-09-27T23:08:47.525Z,11.90
2022-09-27T23:11:20.235Z,10.30
2022-09-27T23:13:48.746Z,11.00
2022-09-27T23:16:18.113Z,11.50
2022-09-27T23:18:46.832Z,11.10
2022-09-27T23:21:15.375Z,10.00
2022-09-27T23:23:46.861Z,8.80
2022-09-27T23:26:15.639Z,9.70
2022-09-27T23:28:44.758Z,9.30
2022-09-27T23:31:12.464Z,9.70
2022-09-27T23:33:43.653Z,10.00
2022-09-27T23:36:16.527Z,8.80
2022-09-27T23:38:46.006Z,9.40
2022-09-27T23:41:14.474Z,9.70
2022-09-27T23:43:41.866Z,9.70
2022-09-27T23:46:09.955Z,9.30
2022-09-27T23:48:38.136Z,9.50
2022-09-27T23:51:06.784Z,9.10
2022-09-27T23:53:34.464Z,9.00
2022-09-27T23:56:06.041Z,9.00
2022-09-27T23:58:38.191Z,11.60
